sensor_id;sensor_type;location;lat;lon;timestamp;pressure;altitude;pressure_sealevel;temperature;humidity
71642;BME280;60657;50.122;14.468;2022-09-20T00:02:26;98352.4916560597;;;11.167696650644693;76.45784695201037
71642;BME280;60657;50.122;14.468;2022-09-20T00:05:43;98357.46826931546;;;11.210421911955443;77.51071946288243
71642;BME280;60657;50.122;14.468;2022-09-20T00:09:00;98350.83281495301;;;11.17837796597238;76.95757991912718
71642;BME280;60657;50.122;14.468;2022-09-20T00:12:17;98350.82259631468;;;11.181048294804306;76.92896925307087
71642;BME280;60657;50.122;14.468;2022-09-20T00:15:33;98363.27960454371;;;11.181048294804306;77.30090791180285
71642;BME280;60657;50.122;14.468;2022-09-20T00:18:55;98364.12394980315;;;11.194399938963912;78.02571145189593
71642;BME280;60657;50.122;14.468;2022-09-20T00:22:13;98364.10396345539;;;11.24513618677043;77.60227359426261
71642;BME280;60657;50.122;14.468;2022-09-20T00:25:29;98359.97643285527;;;11.159685664148931;78.21454184786755
71642;BME280;60657;50.122;14.468;2022-09-20T00:28:45;98368.29484286273;;;11.116960402838181;77.3524071107042
71642;BME280;60657;50.122;14.468;2022-09-20T00:32:00;98359.97160963566;;;11.140993362325474;77.25513084611276
71642;BME280;60657;50.122;14.468;2022-09-20T00:35:16;98367.43213680485;;;11.255817502098118;77.29137102311742
71642;BME280;60657;50.122;14.468;2022-09-20T00:38:36;98361.59974260125;;;11.279850461585411;77.90554665445944
71642;BME280;60657;50.122;14.468;2022-09-20T00:41:52;98355.79376489163;;;11.2291142137789;77.42107270923934
71642;BME280;60657;50.122;14.468;2022-09-20T00:45:10;98350.81203535246;;;11.242465857938505;77.27038986800946
71642;BME280;60657;50.122;14.468;2022-09-20T00:48:36;98350.83281495301;;;11.13565270466163;77.66521705958648
71642;BME280;60657;50.122;14.468;2022-09-20T00:51:53;98357.48796766505;;;11.114290074006256;77.34668497749294
71642;BME280;60657;50.122;14.468;2022-09-20T00:55:17;98354.98991215244;;;11.140993362325474;77.83306630045014
71642;BME280;60657;50.122;14.468;2022-09-20T00:58:35;98359.1421264866;;;11.127641718165869;78.05622949568932
71642;BME280;60657;50.122;14.468;2022-09-20T01:01:58;98359.12717037472;;;11.199740596627755;78.24505989166094
71642;BME280;60657;50.122;14.468;2022-09-20T01:05:20;98361.59430223325;;;11.274509803921568;77.59845883878843
71642;BME280;60657;50.122;14.468;2022-09-20T01:08:38;98360.77565172852;;;11.237125200274662;77.70336461432822
71642;BME280;60657;50.122;14.468;2022-09-20T01:12:00;98362.41257796303;;;11.327916380560005;77.53170061799038
71642;BME280;60657;50.122;14.468;2022-09-20T01:15:23;98363.22459228392;;;11.333257038223849;77.55649652857252
71642;BME280;60657;50.122;14.468;2022-09-20T01:18:43;98361.55382202216;;;11.341268024719618;77.2494087129015
71642;BME280;60657;50.122;14.468;2022-09-20T01:22:03;98361.55382202216;;;11.362630655374993;77.19790951400016
71642;BME280;60657;50.122;14.468;2022-09-20T01:25:40;98362.3952022751;;;11.354619668879224;77.27229724574654
71642;BME280;60657;50.122;14.468;2022-09-20T01:29:22;98358.2363865312;;;11.319905394064243;77.25703822384985
71642;BME280;60657;50.122;14.468;2022-09-20T01:32:55;98361.57168452372;;;11.319905394064243;77.58701457236592
71642;BME280;60657;50.122;14.468;2022-09-20T01:36:22;98351.58957502093;;;11.33058670939193;78.13824673838407
71642;BME280;60657;50.122;14.468;2022-09-20T01:39:44;98355.74834918248;;;11.34927901121538;78.7085526817731
71642;BME280;60657;50.122;14.468;2022-09-20T01:43:10;98353.24818935606;;;11.335927367055774;77.676661326009
71642;BME280;60657;50.122;14.468;2022-09-20T01:46:36;98359.91867000797;;;11.274509803921568;77.93606469825284
71642;BME280;60657;50.122;14.468;2022-09-20T01:50:00;98353.31080959874;;;11.2291142137789;77.61181048294804
71642;BME280;60657;50.122;14.468;2022-09-20T01:53:33;98357.44720162216;;;11.242465857938505;77.46303501945525
71642;BME280;60657;50.122;14.468;2022-09-20T01:57:23;98353.26629510474;;;11.290531776913099;78.49492637521935
71642;BME280;60657;50.122;14.468;2022-09-20T02:01:10;98360.76487462364;;;11.279850461585411;78.07148851758602
71642;BME280;60657;50.122;14.468;2022-09-20T02:05:03;98354.11299702094;;;11.226443884946974;78.43961242084383
71642;BME280;60657;50.122;14.468;2022-09-20T02:08:43;98350.81203535246;;;11.213092240787368;78.27748531319142
71642;BME280;60657;50.122;14.468;2022-09-20T02:12:18;98348.31306049656;;;11.215762569619287;78.443427176318
71642;BME280;60657;50.122;14.468;2022-09-20T02:15:58;98353.3159887069;;;11.215762569619287;78.30228122377356
71642;BME280;60657;50.122;14.468;2022-09-20T02:19:26;98344.17710879991;;;11.157015335317006;78.82681010147249
71642;BME280;60657;50.122;14.468;2022-09-20T02:23:02;98358.28201858547;;;11.242465857938505;78.40909437705044
71642;BME280;60657;50.122;14.468;2022-09-20T02:26:32;98359.1167717047;;;11.226443884946974;78.22789349202716
71642;BME280;60657;50.122;14.468;2022-09-20T02:29:59;98360.77565172852;;;11.213092240787368;77.9265278095674
71642;BME280;60657;50.122;14.468;2022-09-20T02:33:34;98352.47080444981;;;11.218432898451212;77.62325474937056
71642;BME280;60657;50.122;14.468;2022-09-20T02:37:13;98360.76487462364;;;11.290531776913099;77.38483253223468
71642;BME280;60657;50.122;14.468;2022-09-20T02:40:53;98368.2185760048;;;11.357289997711149;77.1921873807889
71642;BME280;60657;50.122;14.468;2022-09-20T02:45:01;98364.06569154708;;;11.37331197070268;76.82787823300526
71642;BME280;60657;50.122;14.468;2022-09-20T02:48:33;98369.04801926124;;;11.37331197070268;76.9556725413901
71642;BME280;60657;50.122;14.468;2022-09-20T02:52:02;98384.04324676348;;;11.311894407568474;76.73823147936217
71642;BME280;60657;50.122;14.468;2022-09-20T02:55:30;98372.39361751622;;;11.277180132753493;76.6600289921416
71642;BME280;60657;50.122;14.468;2022-09-20T02:58:58;98378.22620807454;;;11.269169146257724;76.78591592278934
71642;BME280;60657;50.122;14.468;2022-09-20T03:02:24;98377.38133984432;;;11.298542763408868;76.42923628595408
71642;BME280;60657;50.122;14.468;2022-09-20T03:05:46;98381.51291541719;;;11.370641641870755;76.64476997024491
71642;BME280;60657;50.122;14.468;2022-09-20T03:09:17;98379.84265641427;;;11.381322957198442;76.87556267643244
71642;BME280;60657;50.122;14.468;2022-09-20T03:12:48;98384.02308054622;;;11.39200427252613;77.51071946288243
71642;BME280;60657;50.122;14.468;2022-09-20T03:16:17;98387.37140089503;;;11.274509803921568;78.04287785152972
71642;BME280;60657;50.122;14.468;2022-09-20T03:19:47;98396.52956006225;;;11.213092240787368;78.33661402304112
71642;BME280;60657;50.122;14.468;2022-09-20T03:23:24;98384.04324676348;;;11.253147173266193;78.66849774929427
71642;BME280;60657;50.122;14.468;2022-09-20T03:27:01;98394.0360524132;;;11.124971389333943;78.56931410696575
71642;BME280;60657;50.122;14.468;2022-09-20T03:30:30;98387.35681022798;;;11.279850461585411;78.67231250476844
71642;BME280;60657;50.122;14.468;2022-09-20T03:34:04;98384.86794716892;;;11.269169146257724;78.27939269092852
71642;BME280;60657;50.122;14.468;2022-09-20T03:37:43;98399.85284986637;;;11.215762569619287;78.73716334782941
71642;BME280;60657;50.122;14.468;2022-09-20T03:41:27;98389.01101816431;;;11.3145647364004;78.55405508506905
71642;BME280;60657;50.122;14.468;2022-09-20T03:45:37;98399.83542333462;;;11.27183947508965;78.37666895551995
71642;BME280;60657;50.122;14.468;2022-09-20T03:50:18;98405.66141485663;;;11.215762569619287;79.14343480582895
71642;BME280;60657;50.122;14.468;2022-09-20T03:53:57;98411.47016339425;;;11.303883421072712;79.03852903028915
71642;BME280;60657;50.122;14.468;2022-09-20T03:57:48;98406.49543951445;;;11.218432898451212;79.63172350652323
71642;BME280;60657;50.122;14.468;2022-09-20T04:01:26;98410.6487647426;;;11.218432898451212;80.09140154116122
71642;BME280;60657;50.122;14.468;2022-09-20T04:04:57;98407.35942433633;;;11.087586785687037;81.42084382391089
71642;BME280;60657;50.122;14.468;2022-09-20T04:08:22;98421.50496504578;;;10.988784618905925;82.10749980926222
71642;BME280;60657;50.122;14.468;2022-09-20T04:11:55;98416.53381949909;;;10.954070344090944;82.60532539864195
71642;BME280;60657;50.122;14.468;2022-09-20T04:15:25;98427.34362009268;;;10.849927519645988;82.65873197528039
71642;BME280;60657;50.122;14.468;2022-09-20T04:18:52;98425.6857700459;;;10.783169298847945;83.17563134203098
71642;BME280;60657;50.122;14.468;2022-09-20T04:22:14;98424.02273449702;;;10.772487983520257;83.01922636758984
71642;BME280;60657;50.122;14.468;2022-09-20T04:25:36;98424.85002618472;;;10.76180666819257;83.46364538033112
71642;BME280;60657;50.122;14.468;2022-09-20T04:29:12;98437.31416563019;;;10.713740749217976;83.38162813763638
71642;BME280;60657;50.122;14.468;2022-09-20T04:32:47;98429.01107610016;;;10.727092393377582;83.4083314259556
71642;BME280;60657;50.122;14.468;2022-09-20T04:36:16;98434.8249714126;;;10.740444037537195;83.14511329823759
71642;BME280;60657;50.122;14.468;2022-09-20T04:39:48;98435.65530766426;;;10.729762722209507;83.23285267414359
71642;BME280;60657;50.122;14.468;2022-09-20T04:43:28;98434.82790750568;;;10.638971541924164;83.37590600442512
71642;BME280;60657;50.122;14.468;2022-09-20T04:47:13;98430.67468783796;;;10.687037460898758;83.72877088578622
71642;BME280;60657;50.122;14.468;2022-09-20T04:51:01;98433.16431020525;;;10.751125352864882;84.02059967956055
71642;BME280;60657;50.122;14.468;2022-09-20T04:54:57;98428.17881717169;;;10.775158312352175;83.67536430914778
71642;BME280;60657;50.122;14.468;2022-09-20T04:58:45;98437.31078626245;;;10.807202258335238;83.32631418326085
71642;BME280;60657;50.122;14.468;2022-09-20T05:02:11;98438.14713276236;;;10.756466010528726;83.24429694056612
71642;BME280;60657;50.122;14.468;2022-09-20T05:06:10;98433.16157750806;;;10.7537956816968;83.29388876173037
71642;BME280;60657;50.122;14.468;2022-09-20T05:09:49;98445.61528499733;;;10.812542915999082;82.87426565957122
71642;BME280;60657;50.122;14.468;2022-09-20T05:13:31;98448.1063443962;;;10.865949492637519;83.24811169604028
71642;BME280;60657;50.122;14.468;2022-09-20T05:17:10;98442.29620001215;;;10.799191271839476;83.02304112306402
71642;BME280;60657;50.122;14.468;2022-09-20T05:20:41;98454.75408027497;;;10.812542915999082;82.60151064316777
71642;BME280;60657;50.122;14.468;2022-09-20T05:24:09;98462.22910809879;;;10.900663767452507;82.84374761577783
71642;BME280;60657;50.122;14.468;2022-09-20T05:27:39;98449.77335245872;;;10.78049897001602;83.02113374532692
71642;BME280;60657;50.122;14.468;2022-09-20T05:31:05;98458.91199863922;;;10.767147325856413;83.4083314259556
71642;BME280;60657;50.122;14.468;2022-09-20T05:34:30;98457.25097597869;;;10.772487983520257;84.07209887846189
71642;BME280;60657;50.122;14.468;2022-09-20T05:37:58;98448.94119962837;;;10.815213244831007;83.14702067597467
71642;BME280;60657;50.122;14.468;2022-09-20T05:41:26;98462.22569170283;;;10.900663767452507;83.52849622339208
71642;BME280;60657;50.122;14.468;2022-09-20T05:44:55;98465.54470751184;;;10.96742198825055;82.99252307927061
71642;BME280;60657;50.122;14.468;2022-09-20T05:48:23;98464.72052748848;;;10.954070344090944;82.58815899900816
71642;BME280;60657;50.122;14.468;2022-09-20T05:51:52;98467.21087360976;;;10.927367055771725;83.12603952086671
71642;BME280;60657;50.122;14.468;2022-09-20T05:55:36;98468.03749551192;;;10.964751659418631;82.86854352635996
71642;BME280;60657;50.122;14.468;2022-09-20T05:59:14;98480.4990519599;;;10.964751659418631;82.46608682383459
71642;BME280;60657;50.122;14.468;2022-09-20T06:02:46;98474.68535557954;;;10.964751659418631;83.33012893873503
71642;BME280;60657;50.122;14.468;2022-09-20T06:06:12;98482.16014187425;;;11.052872510872056;83.20424200808728
71642;BME280;60657;50.122;14.468;2022-09-20T06:09:41;98481.31441067487;;;11.154345006485087;83.29579613946746
71642;BME280;60657;50.122;14.468;2022-09-20T06:13:18;98482.14054341012;;;11.098268101014725;82.21812771801328
71642;BME280;60657;50.122;14.468;2022-09-20T06:16:51;98480.46741040642;;;11.293202105745024;82.64538033112078
71642;BME280;60657;50.122;14.468;2022-09-20T06:20:22;98491.27332491116;;;11.27183947508965;81.83283741512169
71642;BME280;60657;50.122;14.468;2022-09-20T06:23:45;98487.94383898142;;;11.293202105745024;81.32166018158236
71642;BME280;60657;50.122;14.468;2022-09-20T06:27:02;98485.44986216746;;;11.290531776913099;81.23964293888761
71642;BME280;60657;50.122;14.468;2022-09-20T06:30:24;98488.75987787537;;;11.383993286030368;81.4914168001831
71642;BME280;60657;50.122;14.468;2022-09-20T06:33:46;98487.9020545842;;;11.509498741130692;81.4494544899672
71642;BME280;60657;50.122;14.468;2022-09-20T06:37:13;98491.24134042264;;;11.432059205004961;80.6235599298085
71642;BME280;60657;50.122;14.468;2022-09-20T06:40:41;98489.59027854042;;;11.317235065232317;79.89684901197833
71642;BME280;60657;50.122;14.468;2022-09-20T06:44:03;98491.24792652702;;;11.445410849164567;80.45189593347067
71642;BME280;60657;50.122;14.468;2022-09-20T06:47:19;98498.73705933041;;;11.381322957198442;80.28786144808117
71642;BME280;60657;50.122;14.468;2022-09-20T06:50:34;98507.04777392057;;;11.40802624551766;80.09712367437247
71642;BME280;60657;50.122;14.468;2022-09-20T06:53:50;98497.90070751226;;;11.421377889677274;79.72137026016632
71642;BME280;60657;50.122;14.468;2022-09-20T06:57:10;98508.69697758032;;;11.456092164492254;79.91210803387503
71642;BME280;60657;50.122;14.468;2022-09-20T07:00:30;98508.69379483766;;;11.525520714122223;79.68513008316167
71642;BME280;60657;50.122;14.468;2022-09-20T07:03:46;98512.01903399946;;;11.52018005645838;79.12436102845808
71642;BME280;60657;50.122;14.468;2022-09-20T07:07:02;98511.17516083189;;;11.568245975432973;79.47722590981918
71642;BME280;60657;50.122;14.468;2022-09-20T07:10:20;98505.35481597534;;;11.482795452811473;79.34943160143435
71642;BME280;60657;50.122;14.468;2022-09-20T07:13:35;98516.1650749188;;;11.51750972762646;78.92790112153811
71642;BME280;60657;50.122;14.468;2022-09-20T07:16:51;98514.50403797675;;;11.549553673609523;79.04997329671168
71642;BME280;60657;50.122;14.468;2022-09-20T07:20:07;98516.15451153369;;;11.568245975432973;78.97749294270237
71642;BME280;60657;50.122;14.468;2022-09-20T07:23:23;98515.34740315046;;;11.506828412298773;78.10772869459068
71642;BME280;60657;50.122;14.468;2022-09-20T07:26:39;98529.48763229538;;;11.485465781643398;78.63607232776378
71642;BME280;60657;50.122;14.468;2022-09-20T07:30:09;98538.61688646484;;;11.613641565575648;78.80964370183871
71642;BME280;60657;50.122;14.468;2022-09-20T07:33:25;98541.92023255193;;;11.659037155718316;78.1916533150225
71642;BME280;60657;50.122;14.468;2022-09-20T07:36:41;98541.94550063978;;;11.522850385290305;77.56794079499504
71642;BME280;60657;50.122;14.468;2022-09-20T07:39:56;98553.59217491592;;;11.541542687113754;78.5769436179141
71642;BME280;60657;50.122;14.468;2022-09-20T07:43:12;98554.41257827611;;;11.56023498893721;77.97611963073167
71642;BME280;60657;50.122;14.468;2022-09-20T07:46:28;98546.90423619981;;;11.712443732356753;77.3829251544976
71642;BME280;60657;50.122;14.468;2022-09-20T07:49:43;98552.73286736824;;;11.653696498054472;77.15976195925842
71642;BME280;60657;50.122;14.468;2022-09-20T07:52:59;98555.22176045315;;;11.626993209735254;75.8646524757763
71642;BME280;60657;50.122;14.468;2022-09-20T07:56:15;98559.36483300163;;;11.760509651331347;76.00961318379493
71642;BME280;60657;50.122;14.468;2022-09-20T07:59:31;98566.86590442108;;;11.704432745860991;75.17227435721371
71642;BME280;60657;50.122;14.468;2022-09-20T08:02:46;98564.32950401561;;;11.926070038910503;75.78644998855573
71642;BME280;60657;50.122;14.468;2022-09-20T08:06:03;98561.78656609452;;;12.006179903868166;74.9662775616083
71642;BME280;60657;50.122;14.468;2022-09-20T08:09:21;98562.60679368241;;;12.022201876859697;74.18997482261388
71642;BME280;60657;50.122;14.468;2022-09-20T08:12:36;98556.69843258272;;;12.28389410238804;73.82757305256733
71642;BME280;60657;50.122;14.468;2022-09-20T08:15:59;98556.62079810868;;;12.449454489967195;74.37880521858548
71642;BME280;60657;50.122;14.468;2022-09-20T08:19:16;98557.3962246119;;;12.596322575722894;73.5376516365301
71642;BME280;60657;50.122;14.468;2022-09-20T08:22:33;98563.22432902521;;;12.585641260395207;72.42946517128252
71642;BME280;60657;50.122;14.468;2022-09-20T08:25:49;98566.4605303688;;;12.748531319142444;72.7708857862211
71642;BME280;60657;50.122;14.468;2022-09-20T08:29:05;98566.34713356028;;;12.938124666208893;71.27740901808194
71642;BME280;60657;50.122;14.468;2022-09-20T08:32:20;98569.74487531977;;;12.84733348592355;69.92126344701305
71642;BME280;60657;50.122;14.468;2022-09-20T08:35:36;98575.5374261984;;;12.879377431906612;69.82589456015869
71642;BME280;60657;50.122;14.468;2022-09-20T08:38:52;98572.23548752978;;;12.855344472419318;69.62180514229038
71642;BME280;60657;50.122;14.468;2022-09-20T08:42:11;98572.93685117003;;;13.071641107804993;69.35667963683528
71642;BME280;60657;50.122;14.468;2022-09-20T08:45:38;98581.10498370336;;;13.234531166552223;69.04768444342717
71642;BME280;60657;50.122;14.468;2022-09-20T08:48:54;98570.08131949442;;;13.530937666895554;68.68528267338064
71642;BME280;60657;50.122;14.468;2022-09-20T08:52:14;98577.57586962772;;;13.538948653391316;67.72014953841459
71642;BME280;60657;50.122;14.468;2022-09-20T08:55:35;98579.36176153328;;;13.421454184786754;67.76974135957884
71642;BME280;60657;50.122;14.468;2022-09-20T08:58:51;98580.11697889383;;;13.474860761425191;68.6032654306859
71642;BME280;60657;50.122;14.468;2022-09-20T09:02:11;98574.93805700527;;;13.715190356298159;69.31662470435646
71642;BME280;60657;50.122;14.468;2022-09-20T09:05:32;98571.50502524874;;;13.813992523079271;68.47737850003814
71642;BME280;60657;50.122;14.468;2022-09-20T09:08:58;98577.17703166403;;;13.966201266498814;68.34576943617914
71642;BME280;60657;50.122;14.468;2022-09-20T09:12:15;98575.2428965698;;;14.174486915388727;68.06538490882734
71642;BME280;60657;50.122;14.468;2022-09-20T09:15:36;98569.93051944;;;14.441519798580913;67.4092469672694
71642;BME280;60657;50.122;14.468;2022-09-20T09:18:56;98570.02195706822;;;14.259937438010226;66.29152361333638
71642;BME280;60657;50.122;14.468;2022-09-20T09:22:16;98572.58147643747;;;14.206530861371789;66.23239490348669
71642;BME280;60657;50.122;14.468;2022-09-20T09:25:35;98581.03191041735;;;14.161135271229114;66.6863508049134
71642;BME280;60657;50.122;14.468;2022-09-20T09:29:25;98577.20777137803;;;13.803311207751584;65.0822461280232
71642;BME280;60657;50.122;14.468;2022-09-20T09:32:43;98586.76900617649;;;13.45883878843366;65.3759822995346
71642;BME280;60657;50.122;14.468;2022-09-20T09:35:59;98586.80672425235;;;13.386739909971773;66.392614633402
71642;BME280;60657;50.122;14.468;2022-09-20T09:39:22;98584.36582420718;;;13.33867399099718;66.58907454032196
71642;BME280;60657;50.122;14.468;2022-09-20T09:42:47;98576.8226083038;;;13.408102540627148;66.76646066987107
71642;BME280;60657;50.122;14.468;2022-09-20T09:46:15;98587.756889186;;;13.28793774319066;66.73785000381476
71642;BME280;60657;50.122;14.468;2022-09-20T09:49:33;98586.0967800951;;;13.269245441367211;66.63485160601205
71642;BME280;60657;50.122;14.468;2022-09-20T09:52:57;98583.54785504026;;;13.37338826581216;67.16128786144809
71642;BME280;60657;50.122;14.468;2022-09-20T09:56:19;98580.20386364922;;;13.349355306324867;67.58281834134432
71642;BME280;60657;50.122;14.468;2022-09-20T09:59:52;98581.04590153393;;;13.368047608148316;67.18417639429313
71642;BME280;60657;50.122;14.468;2022-09-20T10:03:23;98581.04590153393;;;13.309300373846035;66.27817196917678
71642;BME280;60657;50.122;14.468;2022-09-20T10:06:52;98579.36176153328;;;13.37338826581216;67.40543221179523
71642;BME280;60657;50.122;14.468;2022-09-20T10:10:19;98576.81006038903;;;13.448157473105972;64.95445181963836
71642;BME280;60657;50.122;14.468;2022-09-20T10:13:48;98583.44929893174;;;13.52559700923171;65.0650797283894
71642;BME280;60657;50.122;14.468;2022-09-20T10:17:20;98576.65274088149;;;13.640421149004347;65.07461661707485
71642;BME280;60657;50.122;14.468;2022-09-20T10:20:51;98575.80930100627;;;13.576333257038222;64.08087281605249
71642;BME280;60657;50.122;14.468;2022-09-20T10:24:23;98570.68994093568;;;13.795300221255815;64.06370641641871
71642;BME280;60657;50.122;14.468;2022-09-20T10:27:56;98566.23502497067;;;14.062333104448008;63.87487602044709
71642;BME280;60657;50.122;14.468;2022-09-20T10:31:33;98571.06193496284;;;14.238574807354851;62.17158770122835
71642;BME280;60657;50.122;14.468;2022-09-20T10:35:06;98576.15584015232;;;14.134431982909895;62.32227054245823
71642;BME280;60657;50.122;14.468;2022-09-20T10:38:34;98573.85871308114;;;13.947508964675364;61.797741664759286
71642;BME280;60657;50.122;14.468;2022-09-20T10:42:02;98576.22109595258;;;14.056992446784164;62.99557488364995
71642;BME280;60657;50.122;14.468;2022-09-20T10:45:33;98590.93349445378;;;14.310673685816738;62.11818112458991
71642;BME280;60657;50.122;14.468;2022-09-20T10:49:02;98581.08271199717;;;14.19851987487602;62.015182726787216
71642;BME280;60657;50.122;14.468;2022-09-20T10:52:34;98574.84983543144;;;14.502937361715112;61.7519645990692
71642;BME280;60657;50.122;14.468;2022-09-20T10:56:08;98577.28055417174;;;14.5376516365301;60.63424124513618
71642;BME280;60657;50.122;14.468;2022-09-20T10:59:40;98574.71595501725;;;14.668497749294268;60.74296177615015
71642;BME280;60657;50.122;14.468;2022-09-20T11:03:08;98580.461203965;;;14.676508735790037;60.399633783474485
71642;BME280;60657;50.122;14.468;2022-09-20T11:06:44;98576.01009232586;;;14.898146028839548;61.116807812619214
71642;BME280;60657;50.122;14.468;2022-09-20T11:10:13;98580.00550114739;;;15.071717402914473;60.17647058823529
71642;BME280;60657;50.122;14.468;2022-09-20T11:13:37;98576.37837474432;;;15.247959105821316;60.64950026703288
71642;BME280;60657;50.122;14.468;2022-09-20T11:17:02;98569.34835409654;;;15.461585412375065;59.745403219653625
71642;BME280;60657;50.122;14.468;2022-09-20T11:20:27;98568.63485446032;;;15.851453421835657;58.63340199893187
71642;BME280;60657;50.122;14.468;2022-09-20T11:23:50;98561.70108332578;;;16.446936751354237;57.410772869459066
71642;BME280;60657;50.122;14.468;2022-09-20T11:27:17;98560.50528707207;;;16.567101548790724;55.9325551232166
71642;BME280;60657;50.122;14.468;2022-09-20T11:30:39;98567.08286599886;;;16.193255512321663;57.07316700999466
71642;BME280;60657;50.122;14.468;2022-09-20T11:34:07;98568.39096493598;;;15.958266575112532;56.98352025635157
71642;BME280;60657;50.122;14.468;2022-09-20T11:37:35;98573.76391836678;;;15.771343556878001;57.50614175631342
71642;BME280;60657;50.122;14.468;2022-09-20T11:40:58;98575.14864289603;;;15.418860151064315;57.801785305561914
71642;BME280;60657;50.122;14.468;2022-09-20T11:44:23;98574.09763246574;;;15.581750209811553;58.78408484016174
71642;BME280;60657;50.122;14.468;2022-09-20T11:47:39;98568.81965010744;;;15.63515678644999;57.90859845883879
71642;BME280;60657;50.122;14.468;2022-09-20T11:51:05;98573.34398447779;;;15.509651331349659;58.3778133821622
71642;BME280;60657;50.122;14.468;2022-09-20T11:54:42;98577.5856502471;;;15.442893110551616;61.54024567025253
71642;BME280;60657;50.122;14.468;2022-09-20T11:58:13;98570.32100108468;;;15.27733272297246;61.35332265201801
71642;BME280;60657;50.122;14.468;2022-09-20T12:01:33;98578.7492643617;;;15.239948119325554;62.20973525597009
71642;BME280;60657;50.122;14.468;2022-09-20T12:04:53;98577.34277418275;;;15.034332799267567;62.40047302967879
71642;BME280;60657;50.122;14.468;2022-09-20T12:08:17;98573.13129489595;;;15.058365758754867;63.487678339818416
71642;BME280;60657;50.122;14.468;2022-09-20T12:11:39;98577.70996400996;;;14.676508735790037;62.09719996948196
71642;BME280;60657;50.122;14.468;2022-09-20T12:14:56;98577.16432637637;;;14.55634393835355;63.02227817196918
71642;BME280;60657;50.122;14.468;2022-09-20T12:18:35;98578.86174256138;;;14.484245059891663;62.32799267566949
71642;BME280;60657;50.122;14.468;2022-09-20T12:22:34;98588.41016271453;;;14.206530861371789;58.593347066453035
71642;BME280;60657;50.122;14.468;2022-09-20T12:25:58;98585.21318830208;;;14.083695735103383;59.22468909742885
71642;BME280;60657;50.122;14.468;2022-09-20T12:30:20;98586.19167063269;;;14.019607843137258;62.90402075226977
71642;BME280;60657;50.122;14.468;2022-09-20T12:33:53;98586.27141693013;;;13.867399099717709;64.93156328679332